createdAt,value
2022-08-24T00:00:40.328Z,14.90
2022-08-24T00:01:48.163Z,17.50
2022-08-24T00:02:56.596Z,14.70
2022-08-24T00:04:04.407Z,9.10
2022-08-24T00:05:16.056Z,9.10
2022-08-24T00:06:27.399Z,17.00
2022-08-24T00:07:35.719Z,11.10
2022-08-24T00:08:44.538Z,9.90
2022-08-24T00:09:52.363Z,10.90
2022-08-24T00:11:00.910Z,11.90
2022-08-24T00:12:10.185Z,10.80
2022-08-24T00:13:23.482Z,12.00
2022-08-24T00:14:36.078Z,16.10
2022-08-24T00:15:43.975Z,10.50
2022-08-24T00:16:51.624Z,13.20
2022-08-24T00:17:59.993Z,14.60
2022-08-24T00:19:10.091Z,9.90
2022-08-24T00:20:20.093Z,12.10
2022-08-24T00:21:32.942Z,10.50
2022-08-24T00:22:45.559Z,12.20
2022-08-24T00:23:53.295Z,13.20
2022-08-24T00:25:03.310Z,12.70
2022-08-24T00:26:11.971Z,13.40
2022-08-24T00:27:20.789Z,11.20
2022-08-24T00:28:31.085Z,12.90
2022-08-24T00:29:39.703Z,17.00
2022-08-24T00:30:46.908Z,13.50
2022-08-24T00:31:57.953Z,12.80
2022-08-24T00:33:09.520Z,11.50
2022-08-24T00:34:19.617Z,15.30
2022-08-24T00:35:28.400Z,12.50
2022-08-24T00:36:37.673Z,15.40
2022-08-24T00:37:49.393Z,15.10
2022-08-24T00:38:57.857Z,12.60
2022-08-24T00:40:10.810Z,19.20
2022-08-24T00:41:20.249Z,11.90
2022-08-24T00:42:30.712Z,13.10
2022-08-24T00:43:39.236Z,9.60
2022-08-24T00:44:47.622Z,17.70
2022-08-24T00:46:20.958Z,13.80
2022-08-24T00:47:35.015Z,12.20
2022-08-24T00:48:46.373Z,16.90
2022-08-24T00:50:03.775Z,10.80
2022-08-24T00:51:19.614Z,16.40
2022-08-24T00:52:40.898Z,9.90
2022-08-24T00:54:01.691Z,13.40
2022-08-24T00:55:39.653Z,14.70
2022-08-24T00:56:50.242Z,16.70
2022-08-24T00:58:11.272Z,13.90
2022-08-24T01:00:48.407Z,15.30
2022-08-24T01:02:01.239Z,10.90
2022-08-24T01:03:27.867Z,14.60
2022-08-24T01:04:41.397Z,12.40
2022-08-24T01:05:52.068Z,12.80
2022-08-24T01:07:02.044Z,14.40
2022-08-24T01:08:12.762Z,16.40
2022-08-24T01:09:22.272Z,12.30
2022-08-24T01:10:35.156Z,10.50
2022-08-24T01:11:42.806Z,12.80
2022-08-24T01:13:00.653Z,13.90
2022-08-24T01:14:10.458Z,14.90
2022-08-24T01:15:26.546Z,13.10
2022-08-24T01:16:55.294Z,11.60
2022-08-24T01:19:51.531Z,12.90
2022-08-24T01:21:19.735Z,13.30
2022-08-24T01:22:36.906Z,11.50
2022-08-24T01:24:16.582Z,9.60
2022-08-24T01:25:24.985Z,10.50
2022-08-24T01:26:58.785Z,12.90
2022-08-24T01:28:09.731Z,12.50
2022-08-24T01:29:21.435Z,9.50
2022-08-24T01:30:36.368Z,11.90
2022-08-24T01:31:45.035Z,10.20
2022-08-24T01:33:02.001Z,11.30
2022-08-24T01:34:14.661Z,10.90
2022-08-24T01:35:26.170Z,9.80
2022-08-24T01:36:55.882Z,12.20
2022-08-24T01:38:11.822Z,12.00
2022-08-24T01:39:45.591Z,9.40
2022-08-24T01:40:59.704Z,15.10
2022-08-24T01:42:10.869Z,14.00
2022-08-24T01:43:19.976Z,14.70
2022-08-24T01:44:32.820Z,12.00
2022-08-24T01:45:41.273Z,12.60
2022-08-24T01:46:51.930Z,8.90
2022-08-24T01:48:06.444Z,12.10
2022-08-24T01:49:16.885Z,10.20
2022-08-24T01:50:31.387Z,11.80
2022-08-24T01:51:40.673Z,10.60
2022-08-24T01:53:05.767Z,10.90
2022-08-24T01:54:14.945Z,14.50
2022-08-24T01:55:28.471Z,9.50
2022-08-24T01:56:38.424Z,10.70
2022-08-24T01:57:48.649Z,9.10
2022-08-24T01:58:59.415Z,12.10
2022-08-24T02:00:13.276Z,9.60
2022-08-24T02:01:25.430Z,9.40
2022-08-24T02:02:37.638Z,13.30
2022-08-24T02:04:00.014Z,8.80
2022-08-24T02:05:12.413Z,11.60
2022-08-24T02:06:21.817Z,11.00
2022-08-24T02:07:34.138Z,13.10
2022-08-24T02:08:42.081Z,11.40
2022-08-24T02:09:56.703Z,15.00
2022-08-24T02:11:10.051Z,10.80
2022-08-24T02:12:19.467Z,12.60
2022-08-24T02:13:29.210Z,11.20
2022-08-24T02:14:37.848Z,11.70
2022-08-24T02:15:45.850Z,8.60
2022-08-24T02:16:56.883Z,9.70
2022-08-24T02:18:08.305Z,8.40
2022-08-24T02:19:25.564Z,8.90
2022-08-24T02:20:34.358Z,10.80
2022-08-24T02:21:41.956Z,8.90
2022-08-24T02:22:53.249Z,10.30
2022-08-24T02:24:02.349Z,10.80
2022-08-24T02:25:11.118Z,11.50
2022-08-24T02:26:23.552Z,10.30
2022-08-24T02:27:39.962Z,13.20
2022-08-24T02:28:49.087Z,9.80
2022-08-24T02:29:56.972Z,10.50
2022-08-24T02:31:07.243Z,18.50
2022-08-24T02:32:18.450Z,12.50
2022-08-24T02:33:28.225Z,15.60
2022-08-24T02:34:38.275Z,12.90
2022-08-24T02:35:48.751Z,15.20
2022-08-24T02:36:58.188Z,14.00
2022-08-24T02:38:06.738Z,20.10
2022-08-24T02:39:15.690Z,12.50
2022-08-24T02:40:30.165Z,13.00
2022-08-24T02:41:42.267Z,12.10
2022-08-24T02:42:51.905Z,13.00
2022-08-24T02:44:05.389Z,17.50
2022-08-24T02:45:16.195Z,15.90
2022-08-24T02:46:29.274Z,15.10
2022-08-24T02:47:38.883Z,13.10
2022-08-24T02:48:47.238Z,12.80
2022-08-24T02:50:19.291Z,17.30
2022-08-24T02:51:38.870Z,9.50
2022-08-24T02:53:04.947Z,16.10
2022-08-24T02:54:13.531Z,15.80
2022-08-24T02:55:24.977Z,10.10
2022-08-24T02:56:35.601Z,11.60
2022-08-24T02:57:44.795Z,9.70
2022-08-24T03:00:10.068Z,12.50
2022-08-24T03:01:30.228Z,12.50
2022-08-24T03:02:42.324Z,9.90
2022-08-24T03:03:50.502Z,14.90
2022-08-24T03:04:59.117Z,14.40
2022-08-24T03:06:08.958Z,9.70
2022-08-24T03:07:18.811Z,11.80
2022-08-24T03:08:30.567Z,12.00
2022-08-24T03:09:44.231Z,12.50
2022-08-24T03:10:52.710Z,11.50
2022-08-24T03:12:02.505Z,14.20
2022-08-24T03:13:11.597Z,13.50
2022-08-24T03:14:21.093Z,12.00
2022-08-24T03:15:29.238Z,11.00
2022-08-24T03:16:38.266Z,10.50
2022-08-24T03:17:46.185Z,23.00
2022-08-24T03:18:59.139Z,15.20
2022-08-24T03:20:14.107Z,13.10
2022-08-24T03:21:24.423Z,11.60
2022-08-24T03:22:34.101Z,11.50
2022-08-24T03:23:43.135Z,13.60
2022-08-24T03:24:52.244Z,10.50
2022-08-24T03:26:01.471Z,11.10
2022-08-24T03:27:11.197Z,14.60
2022-08-24T03:28:25.156Z,11.90
2022-08-24T03:29:35.019Z,11.10
2022-08-24T03:30:46.809Z,18.00
2022-08-24T03:31:59.726Z,14.90
2022-08-24T03:33:14.265Z,10.30
2022-08-24T03:34:24.023Z,9.90
2022-08-24T03:35:33.166Z,12.50
2022-08-24T03:36:48.091Z,14.90
2022-08-24T03:37:57.606Z,12.60
2022-08-24T03:39:06.659Z,12.40
2022-08-24T03:40:22.311Z,10.20
2022-08-24T03:41:36.728Z,15.10
2022-08-24T03:42:43.740Z,14.80
2022-08-24T03:43:53.974Z,17.40
2022-08-24T03:45:03.817Z,13.90
2022-08-24T03:46:13.533Z,11.70
2022-08-24T03:47:24.343Z,13.00
2022-08-24T03:48:32.741Z,13.60
2022-08-24T03:49:40.948Z,13.80
2022-08-24T03:50:48.418Z,16.70
2022-08-24T03:51:57.741Z,13.60
2022-08-24T03:53:05.928Z,12.30
2022-08-24T03:54:15.895Z,13.10
2022-08-24T03:55:23.309Z,12.80
2022-08-24T03:56:31.400Z,11.20
2022-08-24T03:57:39.254Z,14.40
2022-08-24T03:58:48.261Z,12.50
2022-08-24T04:01:07.736Z,12.60
2022-08-24T04:02:16.325Z,13.90
2022-08-24T04:03:24.705Z,11.90
2022-08-24T04:04:35.546Z,9.40
2022-08-24T04:05:43.845Z,10.20
2022-08-24T04:06:54.141Z,12.80
2022-08-24T04:08:06.364Z,13.40
2022-08-24T04:09:16.087Z,12.80
2022-08-24T04:10:30.380Z,12.30
2022-08-24T04:11:41.139Z,10.50
2022-08-24T04:12:50.129Z,9.30
2022-08-24T04:14:04.228Z,15.50
2022-08-24T04:15:11.683Z,13.60
2022-08-24T04:16:22.325Z,11.10
2022-08-24T04:17:35.386Z,11.80
2022-08-24T04:18:44.424Z,12.00
2022-08-24T04:20:04.776Z,13.00
2022-08-24T04:21:21.763Z,11.10
2022-08-24T04:22:31.139Z,13.00
2022-08-24T04:23:47.735Z,13.10
2022-08-24T04:24:58.053Z,10.60
2022-08-24T04:26:08.491Z,14.40
2022-08-24T04:27:17.437Z,13.00
2022-08-24T04:28:25.269Z,12.00
2022-08-24T04:29:37.160Z,9.80
2022-08-24T04:30:44.846Z,11.40
2022-08-24T04:31:55.002Z,12.90
2022-08-24T04:33:02.714Z,12.10
2022-08-24T04:34:11.543Z,11.20
2022-08-24T04:35:19.753Z,12.30
2022-08-24T04:36:28.785Z,12.10
2022-08-24T04:37:37.188Z,12.60
2022-08-24T04:38:44.942Z,10.20
2022-08-24T04:40:01.238Z,10.60
2022-08-24T04:41:16.409Z,10.40
2022-08-24T04:42:36.335Z,10.40
2022-08-24T04:43:47.401Z,10.90
2022-08-24T04:44:56.956Z,13.70
2022-08-24T04:46:09.669Z,14.80
2022-08-24T04:47:18.053Z,10.30
2022-08-24T04:48:28.155Z,12.80
2022-08-24T04:49:39.117Z,15.70
2022-08-24T04:50:49.395Z,13.10
2022-08-24T04:51:57.649Z,10.20
2022-08-24T04:53:07.353Z,8.50
2022-08-24T04:55:27.907Z,11.10
2022-08-24T04:56:37.380Z,10.30
2022-08-24T04:57:46.650Z,12.00
2022-08-24T04:58:54.896Z,11.00
2022-08-24T05:00:04.284Z,15.00
2022-08-24T05:01:16.654Z,11.10
2022-08-24T05:02:24.976Z,13.00
2022-08-24T05:03:34.331Z,10.10
2022-08-24T05:04:43.056Z,9.30
2022-08-24T05:05:52.838Z,13.20
2022-08-24T05:08:08.083Z,12.70
2022-08-24T05:09:16.384Z,13.20
2022-08-24T05:10:29.257Z,10.70
2022-08-24T05:11:49.742Z,11.00
2022-08-24T05:13:02.606Z,12.00
2022-08-24T05:14:11.254Z,10.60
2022-08-24T05:16:28.555Z,11.30
2022-08-24T05:17:38.612Z,11.50
2022-08-24T05:18:47.901Z,12.80
2022-08-24T05:20:00.157Z,11.10
2022-08-24T05:21:13.034Z,13.80
2022-08-24T05:22:22.683Z,15.20
2022-08-24T05:23:34.848Z,12.10
2022-08-24T05:24:42.861Z,14.30
2022-08-24T05:25:52.192Z,15.60
2022-08-24T05:27:01.761Z,12.00
2022-08-24T05:28:12.329Z,12.50
2022-08-24T05:29:20.952Z,14.20
2022-08-24T05:30:32.275Z,16.00
2022-08-24T05:31:41.155Z,16.80
2022-08-24T05:32:51.488Z,12.80
2022-08-24T05:34:01.267Z,16.50
2022-08-24T05:35:12.835Z,14.50
2022-08-24T05:36:30.389Z,15.30
2022-08-24T05:37:39.591Z,11.50
2022-08-24T05:38:55.959Z,15.70
2022-08-24T05:40:08.708Z,11.70
2022-08-24T05:41:19.558Z,15.30
2022-08-24T05:42:28.672Z,13.00
2022-08-24T05:43:37.381Z,14.00
2022-08-24T05:44:45.072Z,13.70
2022-08-24T05:45:54.343Z,16.40
2022-08-24T05:47:04.401Z,17.20
2022-08-24T05:49:41.721Z,12.00
2022-08-24T05:51:04.305Z,15.30
2022-08-24T05:52:15.906Z,13.90
2022-08-24T05:53:27.983Z,12.10
2022-08-24T05:54:43.147Z,11.80
2022-08-24T05:55:56.595Z,9.30
2022-08-24T05:57:06.302Z,13.90
2022-08-24T05:58:30.699Z,12.10
2022-08-24T05:59:43.148Z,14.90
2022-08-24T06:00:55.412Z,15.30
2022-08-24T06:02:05.602Z,13.50
2022-08-24T06:03:16.175Z,12.60
2022-08-24T06:04:31.018Z,15.00
2022-08-24T06:05:44.646Z,12.50
2022-08-24T06:06:55.032Z,17.70
2022-08-24T06:08:05.990Z,15.70
2022-08-24T06:09:14.490Z,12.80
2022-08-24T06:10:39.960Z,15.00
2022-08-24T06:11:51.243Z,15.10
2022-08-24T06:12:59.729Z,16.50
2022-08-24T06:14:15.522Z,13.90
2022-08-24T06:15:35.498Z,18.70
2022-08-24T06:16:44.783Z,13.30
2022-08-24T06:17:54.296Z,15.90
2022-08-24T06:19:03.191Z,16.00
2022-08-24T06:20:12.383Z,15.90
2022-08-24T06:21:25.082Z,16.80
2022-08-24T06:22:38.113Z,12.60
2022-08-24T06:23:48.618Z,12.70
2022-08-24T06:25:19.666Z,16.50
2022-08-24T06:26:50.128Z,15.70
2022-08-24T06:27:59.256Z,16.60
2022-08-24T06:29:09.707Z,16.00
2022-08-24T06:30:30.239Z,17.80
2022-08-24T06:31:54.433Z,16.80
2022-08-24T06:33:04.897Z,13.40
2022-08-24T06:34:28.031Z,12.40
2022-08-24T06:35:37.441Z,14.80
2022-08-24T06:36:46.406Z,13.20
2022-08-24T06:37:56.028Z,17.00
2022-08-24T06:39:05.892Z,17.40
2022-08-24T06:40:15.067Z,16.90
2022-08-24T06:41:25.520Z,17.70
2022-08-24T06:42:36.376Z,13.90
2022-08-24T06:43:59.949Z,16.40
2022-08-24T06:45:27.322Z,14.10
2022-08-24T06:46:38.630Z,13.20
2022-08-24T06:47:46.198Z,14.70
2022-08-24T06:49:02.585Z,14.70
2022-08-24T06:50:10.904Z,17.20
2022-08-24T06:51:24.940Z,14.60
2022-08-24T06:52:34.801Z,14.60
2022-08-24T06:53:44.323Z,14.50
2022-08-24T06:54:55.871Z,14.60
2022-08-24T06:56:04.819Z,16.90
2022-08-24T06:57:14.088Z,16.90
2022-08-24T06:58:21.878Z,14.70
2022-08-24T06:59:30.798Z,16.60
2022-08-24T07:00:38.914Z,13.50
2022-08-24T07:01:47.250Z,20.40
2022-08-24T07:02:57.874Z,16.40
2022-08-24T07:04:08.804Z,15.00
2022-08-24T07:05:59.244Z,12.60
2022-08-24T07:07:24.241Z,18.40
2022-08-24T07:08:34.910Z,17.00
2022-08-24T07:09:43.391Z,18.30
2022-08-24T07:10:53.729Z,16.80
2022-08-24T07:12:04.606Z,15.50
2022-08-24T07:13:13.101Z,15.50
2022-08-24T07:14:21.260Z,11.20
2022-08-24T07:15:30.841Z,13.90
2022-08-24T07:16:47.432Z,16.30
2022-08-24T07:17:57.083Z,16.90
2022-08-24T07:19:07.981Z,14.80
2022-08-24T07:20:15.702Z,16.40
2022-08-24T07:22:54.282Z,11.10
2022-08-24T07:24:04.656Z,12.30
2022-08-24T07:25:15.650Z,10.10
2022-08-24T07:26:24.663Z,13.60
2022-08-24T07:27:35.849Z,11.60
2022-08-24T07:28:43.288Z,12.60
2022-08-24T07:30:00.083Z,13.00
2022-08-24T07:31:19.106Z,17.60
2022-08-24T07:32:33.718Z,14.20
2022-08-24T07:33:41.909Z,13.90
2022-08-24T07:34:49.318Z,13.90
2022-08-24T07:35:57.951Z,13.20
2022-08-24T07:37:06.952Z,13.20
2022-08-24T07:38:17.337Z,16.50
2022-08-24T07:39:27.797Z,17.70
2022-08-24T07:41:01.642Z,15.30
2022-08-24T07:42:13.883Z,14.50
2022-08-24T07:43:27.931Z,14.80
2022-08-24T07:44:39.840Z,14.30
2022-08-24T07:45:47.387Z,16.70
2022-08-24T07:46:54.442Z,15.80
2022-08-24T07:48:04.988Z,16.90
2022-08-24T07:49:36.859Z,19.30
2022-08-24T07:50:48.981Z,16.90
2022-08-24T07:51:56.372Z,18.50
2022-08-24T07:53:09.672Z,16.60
2022-08-24T07:54:24.843Z,12.50
2022-08-24T07:55:35.310Z,14.40
2022-08-24T07:56:55.862Z,11.10
2022-08-24T07:58:05.782Z,14.50
2022-08-24T07:59:15.035Z,11.80
2022-08-24T08:00:24.862Z,15.80
2022-08-24T08:01:37.410Z,12.80
2022-08-24T08:02:48.291Z,14.80
2022-08-24T08:03:55.847Z,12.50
2022-08-24T08:05:05.087Z,13.40
2022-08-24T08:06:16.433Z,13.10
2022-08-24T08:07:28.009Z,14.70
2022-08-24T08:08:40.431Z,11.70
2022-08-24T08:09:48.150Z,13.80
2022-08-24T08:10:58.663Z,14.00
2022-08-24T08:12:08.178Z,16.40
2022-08-24T08:13:17.238Z,12.10
2022-08-24T08:14:26.945Z,12.60
2022-08-24T08:15:36.259Z,12.80
2022-08-24T08:16:48.282Z,14.70
2022-08-24T08:17:56.059Z,14.40
2022-08-24T08:19:10.488Z,15.90
2022-08-24T08:20:21.145Z,11.90
2022-08-24T08:21:48.013Z,14.80
2022-08-24T08:23:14.956Z,14.30
2022-08-24T08:24:49.196Z,14.30
2022-08-24T08:25:59.476Z,12.50
2022-08-24T08:27:30.218Z,15.60
2022-08-24T08:28:38.107Z,12.70
2022-08-24T08:29:46.353Z,12.90
2022-08-24T08:30:57.404Z,14.60
2022-08-24T08:32:07.456Z,11.60
2022-08-24T08:33:15.635Z,13.80
2022-08-24T08:34:23.379Z,16.00
2022-08-24T08:35:31.240Z,13.70
2022-08-24T08:36:41.544Z,13.80
2022-08-24T08:37:49.615Z,18.40
2022-08-24T08:38:57.391Z,11.40
2022-08-24T08:40:06.071Z,16.30
2022-08-24T08:41:39.625Z,15.20
2022-08-24T08:43:12.207Z,14.80
2022-08-24T08:44:43.365Z,14.50
2022-08-24T08:46:22.570Z,14.80
2022-08-24T08:48:41.139Z,16.10
2022-08-24T08:50:21.976Z,18.30
2022-08-24T08:51:54.778Z,16.70
2022-08-24T08:53:41.218Z,16.20
2022-08-24T08:54:54.152Z,17.10
2022-08-24T08:56:19.951Z,14.30
2022-08-24T08:57:41.830Z,15.70
2022-08-24T08:59:02.880Z,13.10
2022-08-24T09:00:28.021Z,15.80
2022-08-24T09:01:47.003Z,13.50
2022-08-24T09:03:12.089Z,14.90
2022-08-24T09:05:07.838Z,17.90
2022-08-24T09:06:36.637Z,17.60
2022-08-24T09:08:05.879Z,18.00
2022-08-24T09:09:28.229Z,14.30
2022-08-24T09:10:55.815Z,14.80
2022-08-24T09:12:40.831Z,15.70
2022-08-24T09:14:00.440Z,13.90
2022-08-24T09:15:57.832Z,21.00
2022-08-24T09:17:35.010Z,15.80
2022-08-24T09:19:19.248Z,16.70
2022-08-24T09:20:46.211Z,19.80
2022-08-24T09:22:16.751Z,16.80
2022-08-24T09:23:52.454Z,18.90
2022-08-24T09:25:27.478Z,15.70
2022-08-24T09:27:14.815Z,18.00
2022-08-24T09:28:39.731Z,15.20
2022-08-24T09:30:44.913Z,14.80
2022-08-24T09:32:01.572Z,14.90
2022-08-24T09:33:10.971Z,20.10
2022-08-24T09:34:38.658Z,14.80
2022-08-24T09:36:05.239Z,16.40
2022-08-24T09:37:43.506Z,17.50
2022-08-24T09:39:10.469Z,15.40
2022-08-24T09:40:39.998Z,17.60
2022-08-24T09:42:25.231Z,14.90
2022-08-24T09:44:20.807Z,22.10
2022-08-24T09:45:29.778Z,23.90
2022-08-24T09:46:52.970Z,17.50
2022-08-24T09:48:16.275Z,16.60
2022-08-24T09:49:45.711Z,21.60
2022-08-24T09:51:03.169Z,23.30
2022-08-24T09:52:47.471Z,17.70
2022-08-24T09:54:07.000Z,18.90
2022-08-24T09:55:27.659Z,25.40
2022-08-24T09:56:53.786Z,19.60
2022-08-24T09:58:26.660Z,19.50
2022-08-24T09:59:42.311Z,17.70
2022-08-24T10:01:20.727Z,17.40
2022-08-24T10:02:41.357Z,18.30
2022-08-24T10:03:56.788Z,15.90
2022-08-24T10:05:41.886Z,19.90
2022-08-24T10:07:01.585Z,21.70
2022-08-24T10:08:41.827Z,23.00
2022-08-24T10:11:14.451Z,24.50
2022-08-24T10:12:42.125Z,18.80
2022-08-24T10:13:53.958Z,20.20
2022-08-24T10:15:33.756Z,18.40
2022-08-24T10:16:46.822Z,16.20
2022-08-24T10:18:35.156Z,17.90
2022-08-24T10:19:59.151Z,20.20
2022-08-24T10:21:16.446Z,18.10
2022-08-24T10:22:44.952Z,23.10
2022-08-24T10:24:12.013Z,19.40
2022-08-24T10:25:43.882Z,15.60
2022-08-24T10:27:11.348Z,17.30
2022-08-24T10:28:23.016Z,15.80
2022-08-24T10:30:00.268Z,16.60
2022-08-24T10:31:26.046Z,19.90
2022-08-24T10:32:59.918Z,19.50
2022-08-24T10:34:29.360Z,20.40
2022-08-24T10:35:46.932Z,17.00
2022-08-24T10:37:02.149Z,17.90
2022-08-24T10:38:54.596Z,15.80
2022-08-24T10:40:29.784Z,16.50
2022-08-24T10:42:35.433Z,14.70
2022-08-24T10:44:02.046Z,17.20
2022-08-24T10:45:48.120Z,18.40
2022-08-24T10:47:18.828Z,14.70
2022-08-24T10:49:03.835Z,19.20
2022-08-24T10:50:54.187Z,21.50
2022-08-24T10:52:39.512Z,24.90
2022-08-24T10:53:54.234Z,19.20
2022-08-24T10:55:23.926Z,16.30
2022-08-24T10:57:10.318Z,18.00
2022-08-24T10:58:40.635Z,20.40
2022-08-24T11:00:23.331Z,19.70
2022-08-24T11:01:34.821Z,21.70
2022-08-24T11:02:43.847Z,14.60
2022-08-24T11:04:15.218Z,18.10
2022-08-24T11:05:32.332Z,21.90
2022-08-24T11:07:04.459Z,13.40
2022-08-24T11:08:25.945Z,18.30
2022-08-24T11:09:47.576Z,18.30
2022-08-24T11:11:17.392Z,16.00
2022-08-24T11:12:45.453Z,18.90
2022-08-24T11:14:00.881Z,19.90
2022-08-24T11:15:30.065Z,16.00
2022-08-24T11:16:42.624Z,24.20
2022-08-24T11:18:04.272Z,17.30
2022-08-24T11:19:33.539Z,19.80
2022-08-24T11:20:49.793Z,20.30
2022-08-24T11:22:03.826Z,16.10
2022-08-24T11:23:31.771Z,22.20
2022-08-24T11:26:10.331Z,15.70
2022-08-24T11:27:32.509Z,19.80
2022-08-24T11:28:54.118Z,17.90
2022-08-24T11:30:04.478Z,17.00
2022-08-24T11:31:18.532Z,20.20
2022-08-24T11:32:34.773Z,20.90
2022-08-24T11:34:07.175Z,16.90
2022-08-24T11:35:41.492Z,18.40
2022-08-24T11:38:06.226Z,18.20
2022-08-24T11:39:37.892Z,20.00
2022-08-24T11:40:50.006Z,19.10
2022-08-24T11:42:11.121Z,18.60
2022-08-24T11:43:49.888Z,21.10
2022-08-24T11:45:27.538Z,22.10
2022-08-24T11:46:56.654Z,17.60
2022-08-24T11:48:29.689Z,18.30
2022-08-24T11:50:05.731Z,17.50
2022-08-24T11:51:25.620Z,19.20
2022-08-24T11:52:45.973Z,18.40
2022-08-24T11:54:20.905Z,18.50
2022-08-24T11:55:46.605Z,20.10
2022-08-24T11:57:19.425Z,17.80
2022-08-24T11:59:01.688Z,18.60
2022-08-24T12:00:21.314Z,18.20
2022-08-24T12:01:44.453Z,21.00
2022-08-24T12:03:34.631Z,20.10
2022-08-24T12:04:49.246Z,19.40
2022-08-24T12:06:28.377Z,22.10
2022-08-24T12:08:14.080Z,15.50
2022-08-24T12:09:39.763Z,17.20
2022-08-24T12:10:55.580Z,16.60
2022-08-24T12:12:21.325Z,23.60
2022-08-24T12:13:41.563Z,20.60
2022-08-24T12:15:03.009Z,16.20
2022-08-24T12:16:31.420Z,20.10
2022-08-24T12:17:41.594Z,20.10
2022-08-24T12:18:49.730Z,20.90
2022-08-24T12:20:06.178Z,18.70
2022-08-24T12:21:15.716Z,26.80
2022-08-24T12:22:23.627Z,22.80
2022-08-24T12:23:46.089Z,20.10
2022-08-24T12:24:58.793Z,22.00
2022-08-24T12:26:11.781Z,17.60
2022-08-24T12:27:25.576Z,17.80
2022-08-24T12:28:46.358Z,18.60
2022-08-24T12:30:10.308Z,16.10
2022-08-24T12:31:22.577Z,16.60
2022-08-24T12:32:31.514Z,17.10
2022-08-24T12:33:39.054Z,17.90
2022-08-24T12:34:59.387Z,19.10
2022-08-24T12:36:10.203Z,20.50
2022-08-24T12:37:34.366Z,16.60
2022-08-24T12:38:45.469Z,22.40
2022-08-24T12:40:06.014Z,16.70
2022-08-24T12:41:28.075Z,17.50
2022-08-24T12:43:02.689Z,18.60
2022-08-24T12:44:17.671Z,16.00
2022-08-24T12:45:26.044Z,17.70
2022-08-24T12:46:33.961Z,19.00
2022-08-24T12:48:05.277Z,18.50
2022-08-24T12:49:30.349Z,19.10
2022-08-24T12:51:08.715Z,25.20
2022-08-24T12:52:36.151Z,21.80
2022-08-24T12:54:09.272Z,22.80
2022-08-24T12:55:41.074Z,21.30
2022-08-24T12:57:02.593Z,18.50
2022-08-24T12:58:51.788Z,21.70
2022-08-24T13:00:11.945Z,25.80
2022-08-24T13:01:27.780Z,26.70
2022-08-24T13:02:48.306Z,18.70
2022-08-24T13:04:27.318Z,21.30
2022-08-24T13:05:57.201Z,21.20
2022-08-24T13:07:21.481Z,19.00
2022-08-24T13:08:52.396Z,20.00
2022-08-24T13:10:02.353Z,21.70
2022-08-24T13:11:18.064Z,17.40
2022-08-24T13:12:44.536Z,21.30
2022-08-24T13:14:15.275Z,20.80
2022-08-24T13:15:37.819Z,18.20
2022-08-24T13:16:51.373Z,22.70
2022-08-24T13:18:12.181Z,20.70
2022-08-24T13:19:26.059Z,22.10
2022-08-24T13:20:40.477Z,25.60
2022-08-24T13:21:57.896Z,23.20
2022-08-24T13:23:15.995Z,18.40
2022-08-24T13:24:32.357Z,20.50
2022-08-24T13:26:03.005Z,19.50
2022-08-24T13:27:17.688Z,20.40
2022-08-24T13:28:46.246Z,20.60
2022-08-24T13:30:16.678Z,22.60
2022-08-24T13:31:45.022Z,20.90
2022-08-24T13:33:01.643Z,22.80
2022-08-24T13:34:11.759Z,20.80
2022-08-24T13:35:57.213Z,22.90
2022-08-24T13:37:19.896Z,19.70
2022-08-24T13:38:29.769Z,20.80
2022-08-24T13:39:40.798Z,22.60
2022-08-24T13:40:52.314Z,25.20
2022-08-24T13:42:32.669Z,23.00
2022-08-24T13:44:21.021Z,24.20
2022-08-24T13:45:44.169Z,23.10
2022-08-24T13:47:07.219Z,17.40
2022-08-24T13:48:51.957Z,23.40
2022-08-24T13:50:13.488Z,22.60
2022-08-24T13:51:31.519Z,20.50
2022-08-24T13:52:49.808Z,22.90
2022-08-24T13:54:45.497Z,22.50
2022-08-24T13:55:57.498Z,20.00
2022-08-24T13:57:19.540Z,25.70
2022-08-24T13:58:50.468Z,25.60
2022-08-24T14:00:14.719Z,23.30
2022-08-24T14:01:35.521Z,25.80
2022-08-24T14:02:51.460Z,34.40
2022-08-24T14:04:26.222Z,20.60
2022-08-24T14:05:44.728Z,21.50
2022-08-24T14:07:15.953Z,22.90
2022-08-24T14:08:48.131Z,22.30
2022-08-24T14:10:35.874Z,29.80
2022-08-24T14:12:02.698Z,22.00
2022-08-24T14:13:30.621Z,21.20
2022-08-24T14:14:54.501Z,21.70
2022-08-24T14:16:30.511Z,23.90
2022-08-24T14:18:08.198Z,22.30
2022-08-24T14:19:22.268Z,19.90
2022-08-24T14:20:56.912Z,25.60
2022-08-24T14:22:31.805Z,24.10
2022-08-24T14:24:01.582Z,24.60
2022-08-24T14:25:25.736Z,25.30
2022-08-24T14:26:42.357Z,22.20
2022-08-24T14:28:05.084Z,18.80
2022-08-24T14:29:22.136Z,20.40
2022-08-24T14:30:30.046Z,20.00
2022-08-24T14:31:38.388Z,23.90
2022-08-24T14:33:04.898Z,21.90
2022-08-24T14:34:19.360Z,22.40
2022-08-24T14:35:37.975Z,24.50
2022-08-24T14:37:16.315Z,24.40
2022-08-24T14:38:46.593Z,23.80
2022-08-24T14:40:08.203Z,22.30
2022-08-24T14:41:23.795Z,23.10
2022-08-24T14:43:08.316Z,23.50
2022-08-24T14:44:49.351Z,23.00
2022-08-24T14:46:19.672Z,20.50
2022-08-24T14:48:01.930Z,26.90
2022-08-24T14:49:40.872Z,23.80
2022-08-24T14:51:19.435Z,22.20
2022-08-24T14:52:33.475Z,18.20
2022-08-24T14:54:14.903Z,26.80
2022-08-24T14:55:34.825Z,28.40
2022-08-24T14:57:12.021Z,28.70
2022-08-24T14:58:35.045Z,27.70
2022-08-24T15:00:02.419Z,22.20
2022-08-24T15:01:42.441Z,19.70
2022-08-24T15:03:18.155Z,21.30
2022-08-24T15:04:41.623Z,22.00
2022-08-24T15:06:26.841Z,26.20
2022-08-24T15:07:39.424Z,24.50
2022-08-24T15:08:49.636Z,25.50
2022-08-24T15:10:00.791Z,21.10
2022-08-24T15:11:14.768Z,29.70
2022-08-24T15:12:32.210Z,26.70
2022-08-24T15:14:22.613Z,29.30
2022-08-24T15:16:00.025Z,22.00
2022-08-24T15:17:30.874Z,22.50
2022-08-24T15:19:00.560Z,23.10
2022-08-24T15:20:21.878Z,25.40
2022-08-24T15:22:07.810Z,21.40
2022-08-24T15:23:37.294Z,24.20
2022-08-24T15:24:47.513Z,24.40
2022-08-24T15:26:06.252Z,24.00
2022-08-24T15:27:50.958Z,24.00
2022-08-24T15:29:00.057Z,31.20
2022-08-24T15:30:09.508Z,25.50
2022-08-24T15:31:22.706Z,23.30
2022-08-24T15:32:50.560Z,27.20
2022-08-24T15:34:06.450Z,24.30
2022-08-24T15:35:34.133Z,19.40
2022-08-24T15:36:45.830Z,22.80
2022-08-24T15:37:54.880Z,25.40
2022-08-24T15:40:36.150Z,20.90
2022-08-24T15:41:51.828Z,20.30
2022-08-24T15:43:05.295Z,24.90
2022-08-24T15:44:29.710Z,24.10
2022-08-24T15:45:37.960Z,23.50
2022-08-24T15:46:50.285Z,18.70
2022-08-24T15:47:59.631Z,27.00
2022-08-24T15:49:22.050Z,22.50
2022-08-24T15:51:45.863Z,24.90
2022-08-24T15:53:05.191Z,25.70
2022-08-24T15:54:33.239Z,24.30
2022-08-24T15:55:49.591Z,23.40
2022-08-24T15:57:08.378Z,24.50
2022-08-24T15:58:36.332Z,24.30
2022-08-24T15:59:44.171Z,29.00
2022-08-24T16:01:13.976Z,24.30
2022-08-24T16:02:31.842Z,26.00
2022-08-24T16:03:48.372Z,27.40
2022-08-24T16:05:42.293Z,27.90
2022-08-24T16:06:50.157Z,24.60
2022-08-24T16:08:14.083Z,27.10
2022-08-24T16:09:31.526Z,26.00
2022-08-24T16:10:58.700Z,19.30
2022-08-24T16:12:15.155Z,22.70
2022-08-24T16:13:26.211Z,27.90
2022-08-24T16:14:40.613Z,24.00
2022-08-24T16:15:59.243Z,23.50
2022-08-24T16:17:28.676Z,26.80
2022-08-24T16:18:59.878Z,20.20
2022-08-24T16:20:35.018Z,24.40
2022-08-24T16:22:07.496Z,22.80
2022-08-24T16:23:29.162Z,20.40
2022-08-24T16:24:40.910Z,29.10
2022-08-24T16:25:51.350Z,23.40
2022-08-24T16:27:17.411Z,17.50
2022-08-24T16:28:28.679Z,27.90
2022-08-24T16:29:40.093Z,22.70
2022-08-24T16:30:56.263Z,23.70
2022-08-24T16:32:32.333Z,25.70
2022-08-24T16:33:52.447Z,22.50
2022-08-24T16:35:19.653Z,21.70
2022-08-24T16:36:30.976Z,24.10
2022-08-24T16:37:41.300Z,20.60
2022-08-24T16:39:57.915Z,21.90
2022-08-24T16:41:10.492Z,21.90
2022-08-24T16:42:27.393Z,21.80
2022-08-24T16:43:38.397Z,23.30
2022-08-24T16:44:47.175Z,23.70
2022-08-24T16:45:56.037Z,17.40
2022-08-24T16:48:14.528Z,20.70
2022-08-24T16:49:24.517Z,23.50
2022-08-24T16:50:32.618Z,19.70
2022-08-24T16:52:53.982Z,21.30
2022-08-24T16:54:05.681Z,23.50
2022-08-24T16:55:16.239Z,29.50
2022-08-24T16:56:25.028Z,23.10
2022-08-24T16:57:39.079Z,22.00
2022-08-24T16:58:49.267Z,24.20
2022-08-24T16:59:58.228Z,21.80
2022-08-24T17:01:08.899Z,18.70
2022-08-24T17:02:20.469Z,20.80
2022-08-24T17:03:31.997Z,21.80
2022-08-24T17:04:42.097Z,18.00
2022-08-24T17:05:53.049Z,19.20